createdAt,value
2019-06-01T00:00:46.256Z,12.78
2019-06-01T00:03:17.641Z,12.77
2019-06-01T00:05:47.113Z,12.76
2019-06-01T00:08:16.391Z,12.73
2019-06-01T00:10:45.785Z,12.73
2019-06-01T00:13:15.156Z,12.71
2019-06-01T00:15:44.508Z,12.72
2019-06-01T00:18:13.883Z,12.69
2019-06-01T00:20:44.298Z,12.68
2019-06-01T00:23:13.670Z,12.67
2019-06-01T00:25:43.101Z,12.60
2019-06-01T00:28:12.460Z,12.58
2019-06-01T00:30:41.909Z,12.55
2019-06-01T00:33:11.205Z,12.52
2019-06-01T00:35:41.336Z,12.52
2019-06-01T00:38:10.747Z,12.51
2019-06-01T00:40:40.212Z,12.49
2019-06-01T00:43:09.561Z,12.48
2019-06-01T00:45:38.875Z,12.45
2019-06-01T00:48:10.130Z,12.48
2019-06-01T00:50:39.679Z,12.49
2019-06-01T00:53:09.137Z,12.49
2019-06-01T00:55:38.519Z,12.49
2019-06-01T00:58:07.807Z,12.47
2019-06-01T01:00:43.629Z,12.46
2019-06-01T01:03:08.160Z,12.41
2019-06-01T01:05:37.477Z,12.37
2019-06-01T01:08:06.975Z,12.36
2019-06-01T01:10:36.342Z,12.35
2019-06-01T01:13:09.982Z,12.35
2019-06-01T01:15:39.378Z,12.35
2019-06-01T01:18:09.339Z,12.32
2019-06-01T01:20:38.882Z,12.31
2019-06-01T01:23:08.542Z,12.30
2019-06-01T01:25:37.964Z,12.32
2019-06-01T01:28:07.281Z,12.29
2019-06-01T01:30:36.655Z,12.26
2019-06-01T01:33:06.039Z,12.23
2019-06-01T01:35:35.361Z,12.24
2019-06-01T01:38:05.014Z,12.27
2019-06-01T01:40:34.338Z,12.25
2019-06-01T01:43:03.654Z,12.24
2019-06-01T01:45:32.995Z,12.23
2019-06-01T01:48:02.331Z,12.21
2019-06-01T01:50:32.614Z,12.21
2019-06-01T01:53:03.333Z,12.20
2019-06-01T01:55:32.869Z,12.20
2019-06-01T01:58:02.177Z,12.18
2019-06-01T02:00:42.729Z,12.16
2019-06-01T02:03:12.164Z,12.13
2019-06-01T02:05:41.765Z,12.13
2019-06-01T02:08:11.217Z,12.14
2019-06-01T02:10:40.615Z,12.15
2019-06-01T02:13:09.954Z,12.14
2019-06-01T02:15:40.500Z,12.16
2019-06-01T02:18:09.789Z,12.18
2019-06-01T02:20:39.256Z,12.24
2019-06-01T02:23:08.617Z,12.19
2019-06-01T02:25:37.989Z,12.20
2019-06-01T02:28:07.473Z,12.20
2019-06-01T02:30:36.868Z,12.20
2019-06-01T02:33:06.137Z,12.22
2019-06-01T02:35:35.514Z,12.20
2019-06-01T02:38:05.716Z,12.16
2019-06-01T02:40:35.692Z,12.12
2019-06-01T02:43:06.781Z,12.13
2019-06-01T02:45:36.547Z,12.06
2019-06-01T02:48:06.573Z,12.03
2019-06-01T02:50:36.147Z,12.00
2019-06-01T02:53:07.180Z,11.98
2019-06-01T02:55:36.455Z,11.97
2019-06-01T02:58:06.672Z,11.94
2019-06-01T03:00:48.522Z,11.90
2019-06-01T03:03:18.473Z,11.88
2019-06-01T03:05:48.902Z,11.87
2019-06-01T03:08:19.582Z,11.84
2019-06-01T03:10:50.383Z,11.85
2019-06-01T03:13:20.365Z,11.80
2019-06-01T03:15:52.155Z,11.76
2019-06-01T03:18:22.508Z,11.74
2019-06-01T03:20:52.727Z,11.72
2019-06-01T03:23:24.308Z,11.70
2019-06-01T03:25:54.365Z,11.68
2019-06-01T03:28:25.374Z,11.69
2019-06-01T03:30:54.755Z,11.67
2019-06-01T03:33:24.037Z,11.62
2019-06-01T03:35:55.089Z,11.61
2019-06-01T03:38:24.709Z,11.59
2019-06-01T03:40:54.090Z,11.58
2019-06-01T03:43:23.722Z,11.58
2019-06-01T03:45:53.014Z,11.61
2019-06-01T03:48:22.333Z,11.63
2019-06-01T03:50:51.941Z,11.65
2019-06-01T03:53:21.243Z,11.65
2019-06-01T03:55:50.551Z,11.62
2019-06-01T03:58:21.479Z,11.63
2019-06-01T04:00:50.788Z,11.64
2019-06-01T04:03:20.079Z,11.64
2019-06-01T04:05:49.457Z,11.71
2019-06-01T04:08:18.834Z,11.77
2019-06-01T04:10:48.155Z,11.85
2019-06-01T04:13:17.434Z,11.92
2019-06-01T04:15:46.734Z,11.94
2019-06-01T04:18:16.164Z,11.99
2019-06-01T04:20:45.524Z,12.05
2019-06-01T04:23:14.877Z,12.12
2019-06-01T04:25:44.285Z,12.23
2019-06-01T04:28:13.660Z,12.27
2019-06-01T04:30:42.987Z,12.38
2019-06-01T04:33:13.251Z,12.46
2019-06-01T04:35:43.759Z,12.59
2019-06-01T04:38:13.477Z,12.74
2019-06-01T04:40:42.847Z,12.85
2019-06-01T04:43:12.276Z,12.98
2019-06-01T04:45:41.833Z,13.11
2019-06-01T04:48:11.142Z,13.15
2019-06-01T04:50:40.463Z,13.25
2019-06-01T04:53:11.808Z,13.30
2019-06-01T04:55:40.807Z,13.45
2019-06-01T04:58:11.135Z,13.61
2019-06-01T05:00:40.641Z,13.78
2019-06-01T05:03:10.829Z,13.87
2019-06-01T05:05:41.226Z,14.02
2019-06-01T05:08:12.569Z,14.20
2019-06-01T05:10:41.734Z,14.42
2019-06-01T05:13:11.520Z,14.67
2019-06-01T05:15:40.830Z,14.78
2019-06-01T05:18:10.132Z,14.89
2019-06-01T05:20:39.514Z,15.15
2019-06-01T05:23:10.571Z,15.90
2019-06-01T05:25:40.249Z,17.18
2019-06-01T05:28:09.561Z,18.63
2019-06-01T05:30:38.847Z,19.78
2019-06-01T05:33:22.439Z,20.13
2019-06-01T05:35:39.159Z,21.07
2019-06-01T05:38:08.471Z,21.14
2019-06-01T05:40:38.007Z,21.99
2019-06-01T05:43:10.805Z,21.86
2019-06-01T05:45:38.442Z,21.30
2019-06-01T05:48:07.798Z,19.77
2019-06-01T05:50:38.139Z,18.99
2019-06-01T05:53:07.525Z,18.52
2019-06-01T05:55:36.825Z,18.35
2019-06-01T05:58:06.125Z,17.62
2019-06-01T06:00:40.768Z,17.51
2019-06-01T06:03:12.888Z,17.24
2019-06-01T06:05:41.228Z,16.92
2019-06-01T06:08:12.538Z,17.02
2019-06-01T06:10:41.536Z,16.78
2019-06-01T06:13:11.201Z,16.74
2019-06-01T06:15:40.602Z,16.91
2019-06-01T06:18:10.173Z,16.84
2019-06-01T06:20:39.481Z,17.11
2019-06-01T06:23:08.815Z,17.35
2019-06-01T06:25:40.959Z,17.42
2019-06-01T06:28:09.205Z,17.20
2019-06-01T06:30:39.755Z,17.15
2019-06-01T06:33:09.044Z,17.28
2019-06-01T06:35:38.431Z,17.46
2019-06-01T06:38:07.860Z,17.47
2019-06-01T06:40:37.191Z,17.44
2019-06-01T06:43:18.680Z,17.41
2019-06-01T06:45:37.817Z,17.37
2019-06-01T06:48:07.120Z,17.34
2019-06-01T06:50:36.494Z,17.43
2019-06-01T06:53:06.125Z,17.25
2019-06-01T06:55:36.044Z,17.32
2019-06-01T06:58:05.491Z,17.46
2019-06-01T07:00:34.809Z,17.56
2019-06-01T07:03:04.123Z,17.58
2019-06-01T07:05:33.429Z,17.62
2019-06-01T07:08:02.804Z,17.64
2019-06-01T07:10:32.112Z,17.61
2019-06-01T07:13:01.410Z,17.73
2019-06-01T07:15:31.765Z,17.81
2019-06-01T07:18:01.136Z,17.81
2019-06-01T07:20:30.399Z,17.85
2019-06-01T07:22:59.720Z,17.63
2019-06-01T07:25:29.085Z,17.58
2019-06-01T07:27:58.388Z,17.78
2019-06-01T07:30:28.464Z,17.81
2019-06-01T07:32:57.813Z,17.89
2019-06-01T07:35:28.371Z,18.08
2019-06-01T07:37:57.869Z,17.91
2019-06-01T07:40:27.195Z,18.06
2019-06-01T07:42:56.522Z,18.27
2019-06-01T07:45:26.926Z,18.40
2019-06-01T07:47:56.365Z,18.47
2019-06-01T07:50:25.965Z,18.47
2019-06-01T07:52:55.358Z,18.69
2019-06-01T07:55:25.489Z,18.74
2019-06-01T07:57:54.987Z,18.56
2019-06-01T08:00:25.611Z,18.70
2019-06-01T08:02:55.494Z,18.72
2019-06-01T08:05:26.435Z,19.01
2019-06-01T08:07:55.793Z,19.05
2019-06-01T08:10:26.521Z,19.10
2019-06-01T08:12:57.139Z,19.22
2019-06-01T08:15:28.045Z,19.30
2019-06-01T08:17:58.686Z,19.43
2019-06-01T08:20:28.625Z,19.61
2019-06-01T08:22:59.300Z,19.35
2019-06-01T08:25:28.724Z,19.27
2019-06-01T08:27:58.348Z,19.55
2019-06-01T08:30:28.623Z,19.65
2019-06-01T08:32:58.045Z,19.87
2019-06-01T08:35:27.385Z,20.00
2019-06-01T08:37:56.670Z,20.30
2019-06-01T08:40:27.303Z,20.37
2019-06-01T08:42:56.775Z,20.25
2019-06-01T08:45:26.068Z,20.29
2019-06-01T08:47:55.597Z,20.48
2019-06-01T08:50:25.707Z,20.26
2019-06-01T08:52:56.043Z,20.41
2019-06-01T08:55:26.087Z,20.49
2019-06-01T08:57:55.506Z,20.51
2019-06-01T09:00:26.225Z,20.57
2019-06-01T09:02:55.740Z,20.47
2019-06-01T09:05:26.825Z,20.75
2019-06-01T09:07:56.078Z,20.97
2019-06-01T09:10:25.394Z,21.03
2019-06-01T09:12:54.694Z,21.20
2019-06-01T09:15:25.477Z,21.41
2019-06-01T09:17:54.930Z,21.56
2019-06-01T09:20:25.412Z,21.75
2019-06-01T09:22:56.484Z,21.82
2019-06-01T09:25:25.797Z,21.84
2019-06-01T09:27:55.276Z,22.03
2019-06-01T09:30:25.889Z,22.29
2019-06-01T09:32:55.251Z,22.39
2019-06-01T09:35:46.480Z,23.03
2019-06-01T09:37:56.353Z,23.78
2019-06-01T09:40:27.318Z,25.49
2019-06-01T09:42:56.555Z,26.74
2019-06-01T09:45:25.866Z,27.77
2019-06-01T09:47:55.383Z,27.36
2019-06-01T09:50:24.716Z,27.57
2019-06-01T09:52:54.032Z,28.00
2019-06-01T09:55:23.326Z,28.77
2019-06-01T09:57:52.616Z,29.91
2019-06-01T10:00:22.079Z,29.66
2019-06-01T10:02:51.401Z,29.26
2019-06-01T10:05:20.763Z,29.53
2019-06-01T10:07:50.034Z,29.00
2019-06-01T10:10:19.477Z,29.56
2019-06-01T10:12:48.943Z,30.86
2019-06-01T10:15:18.254Z,31.90
2019-06-01T10:17:47.530Z,32.02
2019-06-01T10:20:17.280Z,30.51
2019-06-01T10:22:46.589Z,30.19
2019-06-01T10:25:16.145Z,29.35
2019-06-01T10:27:45.445Z,29.76
2019-06-01T10:30:16.379Z,31.09
2019-06-01T10:32:45.838Z,30.16
2019-06-01T10:35:15.447Z,29.58
2019-06-01T10:37:44.771Z,30.43
2019-06-01T10:40:14.377Z,29.56
2019-06-01T10:42:43.667Z,30.48
2019-06-01T10:45:13.265Z,29.61
2019-06-01T10:47:42.593Z,29.56
2019-06-01T10:50:13.052Z,30.13
2019-06-01T10:52:42.693Z,29.51
2019-06-01T10:55:12.314Z,29.36
2019-06-01T10:57:42.812Z,28.98
2019-06-01T11:00:12.939Z,28.83
2019-06-01T11:02:43.330Z,28.99
2019-06-01T11:05:13.053Z,29.47
2019-06-01T11:07:43.116Z,30.63
2019-06-01T11:10:13.129Z,31.80
2019-06-01T11:12:43.266Z,31.74
2019-06-01T11:15:12.829Z,32.17
2019-06-01T11:17:43.217Z,31.88
2019-06-01T11:20:14.259Z,31.94
2019-06-01T11:22:43.744Z,32.90
2019-06-01T11:25:13.271Z,33.38
2019-06-01T11:27:44.038Z,32.08
2019-06-01T11:30:13.950Z,32.41
2019-06-01T11:32:44.940Z,32.37
2019-06-01T11:35:14.764Z,32.49
2019-06-01T11:37:44.555Z,32.39
2019-06-01T11:40:14.191Z,32.14
2019-06-01T11:42:44.950Z,31.71
2019-06-01T11:45:14.607Z,32.24
2019-06-01T11:47:44.845Z,32.38
2019-06-01T11:50:15.772Z,32.10
2019-06-01T11:52:45.508Z,31.60
2019-06-01T11:55:14.936Z,32.51
2019-06-01T11:57:44.303Z,31.64
2019-06-01T12:00:14.848Z,32.17
2019-06-01T12:02:44.188Z,32.43
2019-06-01T12:05:13.893Z,31.56
2019-06-01T12:07:43.905Z,31.72
2019-06-01T12:10:16.685Z,32.13
2019-06-01T12:12:46.507Z,32.08
2019-06-01T12:15:15.860Z,30.60
2019-06-01T12:17:45.302Z,30.99
2019-06-01T12:20:14.834Z,30.92
2019-06-01T12:22:45.144Z,31.43
2019-06-01T12:25:14.837Z,32.14
2019-06-01T12:27:44.139Z,33.24
2019-06-01T12:30:13.920Z,33.11
2019-06-01T12:32:44.069Z,32.39
2019-06-01T12:35:13.897Z,31.64
2019-06-01T12:38:02.061Z,32.00
2019-06-01T12:40:16.085Z,32.54
2019-06-01T12:42:45.908Z,32.28
2019-06-01T12:45:22.836Z,31.93
2019-06-01T12:47:55.224Z,31.79
2019-06-01T12:50:22.124Z,31.81
2019-06-01T12:52:52.767Z,32.09
2019-06-01T12:55:22.171Z,31.62
2019-06-01T12:57:52.556Z,31.96
2019-06-01T13:00:22.035Z,32.66
2019-06-01T13:03:03.654Z,32.93
2019-06-01T13:05:23.638Z,32.71
2019-06-01T13:08:01.830Z,31.68
2019-06-01T13:10:24.123Z,31.57
2019-06-01T13:12:53.594Z,31.81
2019-06-01T13:15:23.958Z,31.64
2019-06-01T13:17:53.247Z,31.66
2019-06-01T13:20:22.535Z,31.09
2019-06-01T13:22:51.976Z,30.83
2019-06-01T13:25:21.469Z,29.53
2019-06-01T13:27:50.763Z,29.53
2019-06-01T13:30:21.283Z,29.15
2019-06-01T13:32:50.820Z,29.65
2019-06-01T13:35:20.336Z,29.45
2019-06-01T13:37:50.811Z,29.45
2019-06-01T13:40:20.390Z,29.15
2019-06-01T13:42:49.694Z,29.27
2019-06-01T13:45:19.184Z,28.66
2019-06-01T13:47:49.765Z,28.95
2019-06-01T13:50:19.323Z,28.81
2019-06-01T13:52:49.937Z,28.85
2019-06-01T13:55:19.280Z,28.59
2019-06-01T13:57:48.569Z,28.26
2019-06-01T14:00:29.872Z,28.60
2019-06-01T14:02:53.683Z,28.57
2019-06-01T14:05:20.069Z,28.39
2019-06-01T14:07:49.597Z,28.29
2019-06-01T14:10:20.087Z,27.78
2019-06-01T14:12:49.492Z,27.69
2019-06-01T14:15:18.851Z,27.87
2019-06-01T14:17:48.149Z,27.82
2019-06-01T14:20:17.776Z,28.11
2019-06-01T14:22:47.657Z,28.12
2019-06-01T14:25:17.697Z,28.42
2019-06-01T14:27:48.137Z,28.65
2019-06-01T14:30:17.691Z,28.94
2019-06-01T14:32:48.755Z,28.33
2019-06-01T14:35:18.169Z,28.27
2019-06-01T14:37:48.756Z,28.08
2019-06-01T14:40:18.865Z,27.91
2019-06-01T14:42:49.040Z,27.34
2019-06-01T14:45:20.138Z,27.13
2019-06-01T14:47:49.500Z,27.19
2019-06-01T14:50:18.808Z,27.42
2019-06-01T14:52:49.513Z,27.36
2019-06-01T14:55:18.959Z,27.38
2019-06-01T14:57:48.601Z,27.27
2019-06-01T15:00:19.406Z,27.49
2019-06-01T15:02:49.941Z,27.33
2019-06-01T15:05:19.401Z,27.15
2019-06-01T15:07:49.032Z,26.90
2019-06-01T15:10:19.670Z,26.92
2019-06-01T15:12:54.566Z,26.69
2019-06-01T15:15:20.531Z,26.70
2019-06-01T15:17:49.834Z,27.03
2019-06-01T15:20:19.246Z,27.06
2019-06-01T15:22:49.922Z,26.86
2019-06-01T15:25:19.352Z,26.92
2019-06-01T15:27:48.860Z,26.65
2019-06-01T15:30:18.624Z,26.75
2019-06-01T15:32:47.896Z,26.74
2019-06-01T15:35:17.260Z,26.83
2019-06-01T15:37:46.559Z,26.57
2019-06-01T15:40:16.239Z,26.55
2019-06-01T15:42:45.790Z,26.44
2019-06-01T15:45:15.441Z,26.52
2019-06-01T15:47:44.773Z,26.52
2019-06-01T15:50:15.941Z,26.52
2019-06-01T15:52:45.242Z,26.42
2019-06-01T15:55:14.731Z,26.11
2019-06-01T15:57:44.083Z,26.34
2019-06-01T16:00:13.765Z,26.51
2019-06-01T16:02:43.115Z,26.46
2019-06-01T16:05:12.866Z,26.59
2019-06-01T16:07:42.210Z,26.26
2019-06-01T16:10:11.745Z,26.46
2019-06-01T16:12:41.189Z,26.70
2019-06-01T16:15:10.937Z,26.52
2019-06-01T16:17:40.398Z,26.50
2019-06-01T16:20:11.880Z,26.40
2019-06-01T16:22:41.236Z,26.40
2019-06-01T16:25:10.881Z,26.31
2019-06-01T16:27:40.173Z,26.26
2019-06-01T16:30:11.198Z,26.10
2019-06-01T16:32:40.488Z,26.11
2019-06-01T16:35:09.789Z,26.34
2019-06-01T16:37:39.074Z,26.43
2019-06-01T16:40:10.624Z,26.23
2019-06-01T16:42:40.386Z,26.22
2019-06-01T16:45:10.219Z,26.12
2019-06-01T16:47:39.572Z,25.97
2019-06-01T16:50:09.683Z,25.94
2019-06-01T16:52:39.060Z,25.95
2019-06-01T16:55:09.419Z,25.94
2019-06-01T16:57:38.783Z,25.67
2019-06-01T17:00:10.021Z,25.70
2019-06-01T17:02:39.568Z,25.85
2019-06-01T17:05:09.350Z,25.83
2019-06-01T17:07:38.777Z,25.64
2019-06-01T17:10:25.016Z,25.64
2019-06-01T17:12:43.182Z,25.65
2019-06-01T17:15:11.319Z,25.65
2019-06-01T17:17:40.758Z,25.65
2019-06-01T17:20:38.248Z,25.64
2019-06-01T17:23:24.161Z,25.50
2019-06-01T17:25:38.757Z,25.49
2019-06-01T17:28:09.247Z,25.33
2019-06-01T17:30:38.665Z,25.28
2019-06-01T17:33:08.598Z,25.24
2019-06-01T17:35:38.042Z,25.29
2019-06-01T17:38:07.595Z,25.19
2019-06-01T17:40:41.669Z,25.09
2019-06-01T17:43:08.910Z,25.18
2019-06-01T17:45:38.519Z,25.09
2019-06-01T17:48:24.307Z,24.89
2019-06-01T17:50:39.030Z,24.82
2019-06-01T17:53:08.908Z,24.75
2019-06-01T17:55:40.036Z,24.62
2019-06-01T17:58:12.198Z,24.66
2019-06-01T18:00:41.753Z,24.78
2019-06-01T18:03:12.087Z,24.89
2019-06-01T18:05:43.046Z,24.84
2019-06-01T18:08:12.962Z,24.61
2019-06-01T18:10:53.390Z,24.49
2019-06-01T18:13:13.706Z,24.34
2019-06-01T18:15:43.010Z,24.38
2019-06-01T18:18:12.964Z,24.45
2019-06-01T18:20:43.657Z,24.30
2019-06-01T18:23:13.508Z,24.20
2019-06-01T18:25:44.544Z,24.04
2019-06-01T18:28:19.020Z,23.87
2019-06-01T18:30:45.020Z,23.77
2019-06-01T18:33:14.486Z,23.64
2019-06-01T18:35:43.815Z,23.46
2019-06-01T18:38:14.723Z,23.30
2019-06-01T18:40:44.288Z,23.10
2019-06-01T18:43:17.117Z,22.97
2019-06-01T18:45:47.486Z,22.90
2019-06-01T18:48:17.213Z,22.81
2019-06-01T18:50:46.994Z,22.66
2019-06-01T18:53:16.397Z,22.50
2019-06-01T18:55:45.671Z,22.39
2019-06-01T18:58:15.048Z,22.23
2019-06-01T19:00:45.715Z,22.12
2019-06-01T19:03:15.530Z,22.05
2019-06-01T19:05:46.121Z,21.98
2019-06-01T19:08:16.175Z,21.85
2019-06-01T19:10:47.960Z,21.72
2019-06-01T19:13:18.124Z,21.64
2019-06-01T19:15:47.419Z,21.49
2019-06-01T19:18:17.561Z,21.41
2019-06-01T19:20:46.962Z,21.33
2019-06-01T19:23:21.384Z,21.27
2019-06-01T19:25:48.588Z,21.16
2019-06-01T19:28:18.047Z,20.98
2019-06-01T19:30:47.456Z,20.88
2019-06-01T19:33:19.487Z,20.81
2019-06-01T19:35:49.456Z,20.71
2019-06-01T19:38:20.129Z,20.62
2019-06-01T19:40:51.171Z,20.53
2019-06-01T19:43:20.943Z,20.46
2019-06-01T19:45:51.105Z,20.41
2019-06-01T19:48:20.594Z,20.31
2019-06-01T19:50:51.765Z,20.24
2019-06-01T19:53:21.141Z,20.18
2019-06-01T19:55:51.594Z,20.13
2019-06-01T19:58:22.258Z,20.08
2019-06-01T20:00:52.931Z,20.04
2019-06-01T20:03:23.872Z,19.99
2019-06-01T20:05:53.286Z,19.95
2019-06-01T20:08:22.753Z,19.89
2019-06-01T20:10:52.041Z,19.82
2019-06-01T20:13:21.526Z,19.76
2019-06-01T20:15:50.841Z,19.78
2019-06-01T20:18:20.142Z,19.76
2019-06-01T20:20:50.019Z,19.80
2019-06-01T20:23:19.631Z,19.81
2019-06-01T20:25:49.080Z,19.80
2019-06-01T20:28:19.547Z,19.77
2019-06-01T20:30:49.431Z,19.75
2019-06-01T20:33:20.307Z,19.67
2019-06-01T20:35:49.792Z,19.60
2019-06-01T20:38:20.542Z,19.57
2019-06-01T20:40:50.207Z,19.44
2019-06-01T20:43:20.817Z,19.36
2019-06-01T20:45:50.479Z,19.34
2019-06-01T20:48:21.051Z,19.23
2019-06-01T20:50:52.074Z,19.20
2019-06-01T20:53:21.463Z,19.12
2019-06-01T20:55:50.770Z,19.08
2019-06-01T20:58:22.898Z,19.02
2019-06-01T21:00:51.149Z,18.96
2019-06-01T21:03:21.813Z,18.98
2019-06-01T21:05:51.234Z,18.90
2019-06-01T21:08:22.260Z,18.92
2019-06-01T21:10:52.032Z,18.94
2019-06-01T21:13:22.283Z,18.89
2019-06-01T21:15:51.719Z,18.86
2019-06-01T21:18:22.331Z,18.79
2019-06-01T21:20:52.105Z,18.73
2019-06-01T21:23:21.418Z,18.67
2019-06-01T21:25:52.871Z,18.66
2019-06-01T21:28:23.649Z,18.62
2019-06-01T21:30:53.172Z,18.63
2019-06-01T21:33:26.642Z,18.66
2019-06-01T21:35:53.529Z,18.63
2019-06-01T21:38:23.665Z,18.69
2019-06-01T21:40:53.020Z,18.71
2019-06-01T21:43:29.744Z,18.70
2019-06-01T21:45:53.419Z,18.73
2019-06-01T21:48:23.975Z,18.71
2019-06-01T21:50:53.655Z,18.74
2019-06-01T21:53:22.930Z,18.80
2019-06-01T21:55:53.921Z,18.80
2019-06-01T21:58:24.453Z,18.76
2019-06-01T22:00:54.977Z,18.72
2019-06-01T22:03:25.637Z,18.64
2019-06-01T22:05:55.268Z,18.60
2019-06-01T22:08:25.793Z,18.58
2019-06-01T22:10:55.295Z,18.58
2019-06-01T22:13:27.108Z,18.52
2019-06-01T22:15:55.620Z,18.51
2019-06-01T22:18:25.837Z,18.46
2019-06-01T22:20:56.374Z,18.36
2019-06-01T22:23:26.101Z,18.25
2019-06-01T22:25:55.569Z,18.19
2019-06-01T22:28:24.856Z,18.14
2019-06-01T22:30:54.258Z,18.10
2019-06-01T22:33:24.563Z,18.08
2019-06-01T22:35:53.916Z,18.01
2019-06-01T22:38:23.730Z,17.95
2019-06-01T22:40:53.180Z,17.97
2019-06-01T22:43:39.283Z,17.96
2019-06-01T22:45:53.679Z,17.97
2019-06-01T22:48:22.991Z,17.98
2019-06-01T22:50:52.274Z,17.97
2019-06-01T22:53:22.372Z,17.96
2019-06-01T22:55:51.694Z,17.94
2019-06-01T22:58:21.316Z,17.85
2019-06-01T23:00:50.691Z,17.81
2019-06-01T23:03:20.109Z,17.74
2019-06-01T23:05:49.495Z,17.70
2019-06-01T23:08:18.961Z,17.62
2019-06-01T23:10:48.269Z,17.57
2019-06-01T23:13:17.552Z,17.54
2019-06-01T23:15:46.856Z,17.54
2019-06-01T23:18:16.277Z,17.56
2019-06-01T23:20:45.753Z,17.56
2019-06-01T23:23:15.036Z,17.56
2019-06-01T23:25:44.338Z,17.56
2019-06-01T23:28:13.637Z,17.49
2019-06-01T23:30:42.967Z,17.50
2019-06-01T23:33:12.254Z,17.47
2019-06-01T23:35:41.579Z,17.47
2019-06-01T23:38:10.904Z,17.46
2019-06-01T23:40:40.182Z,17.45
2019-06-01T23:43:09.525Z,17.43
2019-06-01T23:45:38.826Z,17.38
2019-06-01T23:48:08.183Z,17.33
2019-06-01T23:50:37.664Z,17.26
2019-06-01T23:53:13.729Z,16.99
2019-06-01T23:55:38.038Z,16.82
2019-06-01T23:58:07.358Z,16.74
